sensor_id;sensor_type;location;lat;lon;timestamp;pressure;altitude;pressure_sealevel;temperature;humidity
32197;BME280;18697;42.770;23.400;2023-04-22T00:02:03;95337.34;;;11.08;70.05
32197;BME280;18697;42.770;23.400;2023-04-22T00:04:28;95347.22;;;11.09;70.32
32197;BME280;18697;42.770;23.400;2023-04-22T00:06:54;95352.00;;;11.09;70.59
32197;BME280;18697;42.770;23.400;2023-04-22T00:09:19;95352.00;;;11.09;70.81
32197;BME280;18697;42.770;23.400;2023-04-22T00:11:44;95342.31;;;11.04;70.93
32197;BME280;18697;42.770;23.400;2023-04-22T00:14:10;95342.38;;;10.95;70.33
32197;BME280;18697;42.770;23.400;2023-04-22T00:16:35;95344.25;;;10.89;70.19
32197;BME280;18697;42.770;23.400;2023-04-22T00:19:01;95332.13;;;10.77;70.45
32197;BME280;18697;42.770;23.400;2023-04-22T00:21:26;95343.59;;;10.70;70.55
32197;BME280;18697;42.770;23.400;2023-04-22T00:23:51;95338.25;;;10.58;71.16
32197;BME280;18697;42.770;23.400;2023-04-22T00:26:17;95339.78;;;10.59;71.22
32197;BME280;18697;42.770;23.400;2023-04-22T00:28:42;95342.16;;;10.51;71.19
32197;BME280;18697;42.770;23.400;2023-04-22T00:31:07;95340.00;;;10.46;70.97
32197;BME280;18697;42.770;23.400;2023-04-22T00:33:33;95339.16;;;10.40;70.84
32197;BME280;18697;42.770;23.400;2023-04-22T00:35:58;95337.47;;;10.33;71.14
32197;BME280;18697;42.770;23.400;2023-04-22T00:38:24;95340.72;;;10.32;70.91
32197;BME280;18697;42.770;23.400;2023-04-22T00:40:49;95343.84;;;10.25;71.16
32197;BME280;18697;42.770;23.400;2023-04-22T00:43:15;95339.06;;;10.16;71.29
32197;BME280;18697;42.770;23.400;2023-04-22T00:45:42;95339.09;;;10.07;71.90
32197;BME280;18697;42.770;23.400;2023-04-22T00:48:08;95325.84;;;10.02;72.31
32197;BME280;18697;42.770;23.400;2023-04-22T00:50:33;95336.16;;;10.10;72.22
32197;BME280;18697;42.770;23.400;2023-04-22T00:52:59;95328.13;;;10.12;72.05
32197;BME280;18697;42.770;23.400;2023-04-22T00:55:25;95332.44;;;10.23;72.00
32197;BME280;18697;42.770;23.400;2023-04-22T00:57:51;95333.81;;;10.27;71.80
32197;BME280;18697;42.770;23.400;2023-04-22T01:00:17;95340.56;;;10.35;71.86
32197;BME280;18697;42.770;23.400;2023-04-22T01:02:44;95337.72;;;10.44;71.20
32197;BME280;18697;42.770;23.400;2023-04-22T01:05:10;95339.06;;;10.49;70.22
32197;BME280;18697;42.770;23.400;2023-04-22T01:07:36;95337.38;;;10.51;68.83
32197;BME280;18697;42.770;23.400;2023-04-22T01:10:01;95342.84;;;10.37;68.50
32197;BME280;18697;42.770;23.400;2023-04-22T01:12:27;95337.78;;;10.35;69.14
32197;BME280;18697;42.770;23.400;2023-04-22T01:14:52;95337.31;;;10.37;69.43
32197;BME280;18697;42.770;23.400;2023-04-22T01:17:18;95336.13;;;10.52;69.27
32197;BME280;18697;42.770;23.400;2023-04-22T01:19:44;95325.31;;;10.54;69.09
32197;BME280;18697;42.770;23.400;2023-04-22T01:22:12;95325.00;;;10.29;69.72
32197;BME280;18697;42.770;23.400;2023-04-22T01:24:38;95317.81;;;10.46;68.77
32197;BME280;18697;42.770;23.400;2023-04-22T01:27:03;95329.16;;;10.57;68.41
32197;BME280;18697;42.770;23.400;2023-04-22T01:29:29;95332.72;;;10.58;68.17
32197;BME280;18697;42.770;23.400;2023-04-22T01:31:54;95333.69;;;10.45;68.25
32197;BME280;18697;42.770;23.400;2023-04-22T01:34:20;95321.22;;;10.41;68.57
32197;BME280;18697;42.770;23.400;2023-04-22T01:36:47;95329.44;;;10.35;68.51
32197;BME280;18697;42.770;23.400;2023-04-22T01:39:12;95329.84;;;10.43;68.48
32197;BME280;18697;42.770;23.400;2023-04-22T01:41:38;95317.97;;;10.42;68.47
32197;BME280;18697;42.770;23.400;2023-04-22T01:44:04;95335.66;;;10.54;68.20
32197;BME280;18697;42.770;23.400;2023-04-22T01:46:29;95335.59;;;10.39;68.20
32197;BME280;18697;42.770;23.400;2023-04-22T01:48:55;95336.16;;;9.50;71.44
32197;BME280;18697;42.770;23.400;2023-04-22T01:51:20;95342.06;;;9.85;70.55
32197;BME280;18697;42.770;23.400;2023-04-22T01:53:47;95337.09;;;9.38;72.46
32197;BME280;18697;42.770;23.400;2023-04-22T01:56:12;95343.69;;;8.95;75.98
32197;BME280;18697;42.770;23.400;2023-04-22T01:58:38;95343.06;;;9.00;75.92
32197;BME280;18697;42.770;23.400;2023-04-22T02:01:04;95346.78;;;9.06;75.82
32197;BME280;18697;42.770;23.400;2023-04-22T02:03:30;95343.09;;;9.09;75.00
32197;BME280;18697;42.770;23.400;2023-04-22T02:05:56;95340.63;;;9.20;75.06
32197;BME280;18697;42.770;23.400;2023-04-22T02:08:21;95344.47;;;9.32;74.26
32197;BME280;18697;42.770;23.400;2023-04-22T02:10:47;95343.41;;;9.11;74.52
32197;BME280;18697;42.770;23.400;2023-04-22T02:13:12;95344.94;;;9.21;73.90
32197;BME280;18697;42.770;23.400;2023-04-22T02:15:37;95342.47;;;9.14;74.02
32197;BME280;18697;42.770;23.400;2023-04-22T02:18:04;95343.25;;;9.14;73.60
32197;BME280;18697;42.770;23.400;2023-04-22T02:20:30;95345.09;;;9.27;73.24
32197;BME280;18697;42.770;23.400;2023-04-22T02:22:55;95351.25;;;9.40;72.48
32197;BME280;18697;42.770;23.400;2023-04-22T02:25:21;95339.53;;;9.45;72.16
32197;BME280;18697;42.770;23.400;2023-04-22T02:27:46;95344.31;;;9.53;71.76
32197;BME280;18697;42.770;23.400;2023-04-22T02:30:11;95348.88;;;9.66;70.90
32197;BME280;18697;42.770;23.400;2023-04-22T02:32:37;95355.69;;;9.65;70.89
32197;BME280;18697;42.770;23.400;2023-04-22T02:35:04;95354.41;;;9.75;70.48
32197;BME280;18697;42.770;23.400;2023-04-22T02:37:30;95359.94;;;9.84;70.21
32197;BME280;18697;42.770;23.400;2023-04-22T02:39:55;95357.00;;;9.87;70.20
32197;BME280;18697;42.770;23.400;2023-04-22T02:42:21;95359.94;;;9.93;70.03
32197;BME280;18697;42.770;23.400;2023-04-22T02:44:46;95363.00;;;9.95;69.52
32197;BME280;18697;42.770;23.400;2023-04-22T02:47:12;95356.53;;;9.89;69.15
32197;BME280;18697;42.770;23.400;2023-04-22T02:49:37;95356.09;;;9.81;69.42
32197;BME280;18697;42.770;23.400;2023-04-22T02:52:03;95361.03;;;9.77;69.76
32197;BME280;18697;42.770;23.400;2023-04-22T02:54:29;95357.19;;;9.84;70.06
32197;BME280;18697;42.770;23.400;2023-04-22T02:56:54;95362.88;;;9.89;70.24
32197;BME280;18697;42.770;23.400;2023-04-22T02:59:19;95364.88;;;9.89;69.87
32197;BME280;18697;42.770;23.400;2023-04-22T03:01:45;95362.72;;;9.84;69.55
32197;BME280;18697;42.770;23.400;2023-04-22T03:04:10;95361.03;;;9.77;69.85
32197;BME280;18697;42.770;23.400;2023-04-22T03:06:36;95361.81;;;9.69;70.01
32197;BME280;18697;42.770;23.400;2023-04-22T03:09:02;95365.06;;;9.67;70.31
32197;BME280;18697;42.770;23.400;2023-04-22T03:11:28;95357.38;;;9.62;70.51
32197;BME280;18697;42.770;23.400;2023-04-22T03:13:53;95365.53;;;9.66;70.47
32197;BME280;18697;42.770;23.400;2023-04-22T03:16:22;95363.72;;;9.53;70.93
32197;BME280;18697;42.770;23.400;2023-04-22T03:18:48;95361.56;;;9.58;71.23
32197;BME280;18697;42.770;23.400;2023-04-22T03:21:13;95360.94;;;9.63;71.23
32197;BME280;18697;42.770;23.400;2023-04-22T03:23:39;95361.81;;;9.69;70.96
32197;BME280;18697;42.770;23.400;2023-04-22T03:26:04;95361.50;;;9.76;70.93
32197;BME280;18697;42.770;23.400;2023-04-22T03:28:30;95369.97;;;9.81;70.63
32197;BME280;18697;42.770;23.400;2023-04-22T03:30:55;95369.66;;;9.88;70.36
32197;BME280;18697;42.770;23.400;2023-04-22T03:33:20;95368.09;;;9.87;69.73
32197;BME280;18697;42.770;23.400;2023-04-22T03:35:47;95377.06;;;9.82;70.02
32197;BME280;18697;42.770;23.400;2023-04-22T03:38:12;95381.69;;;9.67;70.08
32197;BME280;18697;42.770;23.400;2023-04-22T03:40:38;95374.44;;;9.70;70.49
32197;BME280;18697;42.770;23.400;2023-04-22T03:43:03;95375.38;;;9.76;70.03
32197;BME280;18697;42.770;23.400;2023-04-22T03:45:28;95382.13;;;9.84;69.96
32197;BME280;18697;42.770;23.400;2023-04-22T03:47:54;95384.91;;;9.93;69.89
32197;BME280;18697;42.770;23.400;2023-04-22T03:50:19;95389.84;;;9.89;70.03
32197;BME280;18697;42.770;23.400;2023-04-22T03:52:45;95388.91;;;9.92;69.66
32197;BME280;18697;42.770;23.400;2023-04-22T03:55:10;95389.97;;;9.95;69.40
32197;BME280;18697;42.770;23.400;2023-04-22T03:57:35;95390.75;;;9.95;69.51
32197;BME280;18697;42.770;23.400;2023-04-22T04:00:01;95393.53;;;9.86;69.42
32197;BME280;18697;42.770;23.400;2023-04-22T04:02:26;95399.41;;;9.79;70.03
32197;BME280;18697;42.770;23.400;2023-04-22T04:04:52;95407.56;;;9.73;70.30
32197;BME280;18697;42.770;23.400;2023-04-22T04:07:17;95404.19;;;9.69;70.56
32197;BME280;18697;42.770;23.400;2023-04-22T04:09:43;95394.94;;;9.72;71.04
32197;BME280;18697;42.770;23.400;2023-04-22T04:12:08;95405.88;;;9.76;71.05
32197;BME280;18697;42.770;23.400;2023-04-22T04:14:33;95408.97;;;9.78;70.87
32197;BME280;18697;42.770;23.400;2023-04-22T04:16:59;95405.72;;;9.70;70.95
32197;BME280;18697;42.770;23.400;2023-04-22T04:19:24;95414.66;;;9.83;70.60
32197;BME280;18697;42.770;23.400;2023-04-22T04:21:49;95419.75;;;9.85;70.63
32197;BME280;18697;42.770;23.400;2023-04-22T04:24:15;95417.72;;;9.85;70.83
32197;BME280;18697;42.770;23.400;2023-04-22T04:26:40;95424.50;;;9.94;70.81
32197;BME280;18697;42.770;23.400;2023-04-22T04:29:06;95410.16;;;10.04;70.69
32197;BME280;18697;42.770;23.400;2023-04-22T04:31:32;95413.53;;;10.08;70.33
32197;BME280;18697;42.770;23.400;2023-04-22T04:33:58;95418.47;;;10.13;71.09
32197;BME280;18697;42.770;23.400;2023-04-22T04:36:23;95420.31;;;10.16;70.74
32197;BME280;18697;42.770;23.400;2023-04-22T04:38:53;95419.84;;;10.27;70.66
32197;BME280;18697;42.770;23.400;2023-04-22T04:41:19;95416.59;;;10.29;70.66
32197;BME280;18697;42.770;23.400;2023-04-22T04:43:45;95424.00;;;10.32;70.98
32197;BME280;18697;42.770;23.400;2023-04-22T04:46:12;95436.63;;;10.33;70.54
32197;BME280;18697;42.770;23.400;2023-04-22T04:48:38;95436.63;;;10.33;70.17
32197;BME280;18697;42.770;23.400;2023-04-22T04:51:03;95443.38;;;10.41;70.62
32197;BME280;18697;42.770;23.400;2023-04-22T04:53:30;95442.44;;;10.44;70.84
32197;BME280;18697;42.770;23.400;2023-04-22T04:55:55;95447.19;;;10.52;70.83
32197;BME280;18697;42.770;23.400;2023-04-22T04:58:21;95444.59;;;10.49;71.16
32197;BME280;18697;42.770;23.400;2023-04-22T05:00:46;95448.88;;;10.59;70.85
32197;BME280;18697;42.770;23.400;2023-04-22T05:03:11;95438.09;;;10.52;71.00
32197;BME280;18697;42.770;23.400;2023-04-22T05:05:36;95438.66;;;10.65;71.25
32197;BME280;18697;42.770;23.400;2023-04-22T05:08:02;95434.66;;;10.66;70.97
32197;BME280;18697;42.770;23.400;2023-04-22T05:10:27;95437.56;;;10.39;72.12
32197;BME280;18697;42.770;23.400;2023-04-22T05:12:53;95442.53;;;10.26;73.16
32197;BME280;18697;42.770;23.400;2023-04-22T05:15:18;95441.50;;;10.47;72.25
32197;BME280;18697;42.770;23.400;2023-04-22T05:17:43;95439.13;;;10.64;72.25
32197;BME280;18697;42.770;23.400;2023-04-22T05:20:09;95446.31;;;10.79;72.96
32197;BME280;18697;42.770;23.400;2023-04-22T05:22:34;95450.06;;;10.67;72.74
32197;BME280;18697;42.770;23.400;2023-04-22T05:25:06;95446.88;;;10.93;73.15
32197;BME280;18697;42.770;23.400;2023-04-22T05:27:31;95451.50;;;11.19;72.69
32197;BME280;18697;42.770;23.400;2023-04-22T05:29:56;95442.69;;;11.21;71.82
32197;BME280;18697;42.770;23.400;2023-04-22T05:32:22;95446.78;;;10.78;72.63
32197;BME280;18697;42.770;23.400;2023-04-22T05:34:47;95442.44;;;10.86;74.10
32197;BME280;18697;42.770;23.400;2023-04-22T05:37:12;95447.13;;;11.04;73.09
32197;BME280;18697;42.770;23.400;2023-04-22T05:39:39;95442.19;;;11.08;73.21
32197;BME280;18697;42.770;23.400;2023-04-22T05:42:04;95444.66;;;11.06;73.54
32197;BME280;18697;42.770;23.400;2023-04-22T05:44:29;95444.22;;;11.22;73.22
32197;BME280;18697;42.770;23.400;2023-04-22T05:46:55;95447.84;;;11.37;73.20
32197;BME280;18697;42.770;23.400;2023-04-22T05:49:20;95460.16;;;11.45;73.05
32197;BME280;18697;42.770;23.400;2023-04-22T05:51:46;95448.31;;;11.60;72.79
32197;BME280;18697;42.770;23.400;2023-04-22T05:54:11;95451.56;;;11.34;73.08
32197;BME280;18697;42.770;23.400;2023-04-22T05:56:36;95452.16;;;11.38;72.87
32197;BME280;18697;42.770;23.400;2023-04-22T05:59:02;95453.50;;;11.67;72.18
32197;BME280;18697;42.770;23.400;2023-04-22T06:01:27;95450.97;;;11.30;72.82
32197;BME280;18697;42.770;23.400;2023-04-22T06:03:52;95450.50;;;11.08;74.53
32197;BME280;18697;42.770;23.400;2023-04-22T06:06:18;95450.22;;;11.30;75.02
32197;BME280;18697;42.770;23.400;2023-04-22T06:08:43;95450.50;;;11.08;75.33
32197;BME280;18697;42.770;23.400;2023-04-22T06:11:09;95457.66;;;11.24;76.25
32197;BME280;18697;42.770;23.400;2023-04-22T06:13:34;95462.00;;;11.48;74.93
32197;BME280;18697;42.770;23.400;2023-04-22T06:16:00;95461.78;;;11.76;74.84
32197;BME280;18697;42.770;23.400;2023-04-22T06:18:25;95456.69;;;12.28;73.46
32197;BME280;18697;42.770;23.400;2023-04-22T06:20:51;95450.28;;;12.36;70.08
32197;BME280;18697;42.770;23.400;2023-04-22T06:23:16;95452.47;;;12.62;69.29
32197;BME280;18697;42.770;23.400;2023-04-22T06:25:42;95458.19;;;12.88;68.63
32197;BME280;18697;42.770;23.400;2023-04-22T06:28:08;95462.03;;;12.90;67.25
32197;BME280;18697;42.770;23.400;2023-04-22T06:30:33;95459.97;;;13.20;66.78
32197;BME280;18697;42.770;23.400;2023-04-22T06:32:58;95457.41;;;13.37;66.11
32197;BME280;18697;42.770;23.400;2023-04-22T06:35:24;95457.63;;;13.74;65.20
32197;BME280;18697;42.770;23.400;2023-04-22T06:37:50;95457.63;;;14.20;64.92
32197;BME280;18697;42.770;23.400;2023-04-22T06:40:15;95451.09;;;14.49;64.05
32197;BME280;18697;42.770;23.400;2023-04-22T06:42:40;95451.06;;;14.75;63.24
32197;BME280;18697;42.770;23.400;2023-04-22T06:45:06;95453.78;;;15.01;60.07
32197;BME280;18697;42.770;23.400;2023-04-22T06:47:33;95455.50;;;15.30;60.09
32197;BME280;18697;42.770;23.400;2023-04-22T06:49:58;95456.00;;;15.28;59.69
32197;BME280;18697;42.770;23.400;2023-04-22T06:52:24;95455.84;;;15.43;59.71
32197;BME280;18697;42.770;23.400;2023-04-22T06:54:49;95451.69;;;15.75;59.30
32197;BME280;18697;42.770;23.400;2023-04-22T06:57:15;95454.06;;;15.99;59.19
32197;BME280;18697;42.770;23.400;2023-04-22T06:59:40;95452.88;;;16.23;58.88
32197;BME280;18697;42.770;23.400;2023-04-22T07:02:06;95453.91;;;16.48;57.26
32197;BME280;18697;42.770;23.400;2023-04-22T07:04:31;95460.81;;;16.58;57.35
32197;BME280;18697;42.770;23.400;2023-04-22T07:06:57;95455.97;;;16.64;56.10
32197;BME280;18697;42.770;23.400;2023-04-22T07:09:22;95452.47;;;16.86;56.97
32197;BME280;18697;42.770;23.400;2023-04-22T07:11:47;95449.66;;;17.02;55.99
32197;BME280;18697;42.770;23.400;2023-04-22T07:14:13;95451.19;;;17.03;56.63
32197;BME280;18697;42.770;23.400;2023-04-22T07:16:38;95449.91;;;17.04;56.14
32197;BME280;18697;42.770;23.400;2023-04-22T07:19:03;95444.75;;;17.25;56.30
32197;BME280;18697;42.770;23.400;2023-04-22T07:21:30;95449.34;;;17.28;55.39
32197;BME280;18697;42.770;23.400;2023-04-22T07:23:56;95447.06;;;17.16;54.67
32197;BME280;18697;42.770;23.400;2023-04-22T07:26:22;95444.56;;;17.01;54.94
32197;BME280;18697;42.770;23.400;2023-04-22T07:28:50;95448.59;;;17.11;55.57
32197;BME280;18697;42.770;23.400;2023-04-22T07:31:16;95449.56;;;16.35;56.57
32197;BME280;18697;42.770;23.400;2023-04-22T07:33:41;95437.88;;;16.31;57.15
32197;BME280;18697;42.770;23.400;2023-04-22T07:36:06;95435.06;;;16.59;57.47
32197;BME280;18697;42.770;23.400;2023-04-22T07:38:32;95444.00;;;16.63;57.99
32197;BME280;18697;42.770;23.400;2023-04-22T07:40:57;95443.47;;;16.31;58.42
32197;BME280;18697;42.770;23.400;2023-04-22T07:43:23;95446.53;;;16.61;58.99
32197;BME280;18697;42.770;23.400;2023-04-22T07:45:48;95444.28;;;16.65;58.23
32197;BME280;18697;42.770;23.400;2023-04-22T07:48:13;95438.41;;;16.63;57.53
32197;BME280;18697;42.770;23.400;2023-04-22T07:50:39;95426.94;;;16.67;58.07
32197;BME280;18697;42.770;23.400;2023-04-22T07:53:04;95428.44;;;17.18;55.88
32197;BME280;18697;42.770;23.400;2023-04-22T07:55:30;95421.59;;;16.97;56.65
32197;BME280;18697;42.770;23.400;2023-04-22T07:57:56;95431.22;;;16.40;56.97
32197;BME280;18697;42.770;23.400;2023-04-22T08:00:21;95432.03;;;16.63;58.50
32197;BME280;18697;42.770;23.400;2023-04-22T08:02:46;95426.91;;;16.61;57.65
32197;BME280;18697;42.770;23.400;2023-04-22T08:05:12;95422.13;;;16.73;56.49
32197;BME280;18697;42.770;23.400;2023-04-22T08:07:37;95422.88;;;16.96;56.70
32197;BME280;18697;42.770;23.400;2023-04-22T08:10:03;95430.22;;;17.16;55.86
32197;BME280;18697;42.770;23.400;2023-04-22T08:12:29;95431.97;;;17.35;55.97
32197;BME280;18697;42.770;23.400;2023-04-22T08:14:54;95431.47;;;17.31;54.67
32197;BME280;18697;42.770;23.400;2023-04-22T08:17:19;95430.16;;;17.66;55.29
32197;BME280;18697;42.770;23.400;2023-04-22T08:19:46;95416.56;;;17.81;51.91
32197;BME280;18697;42.770;23.400;2023-04-22T08:22:12;95420.31;;;17.03;53.24
32197;BME280;18697;42.770;23.400;2023-04-22T08:24:38;95412.06;;;17.45;52.22
32197;BME280;18697;42.770;23.400;2023-04-22T08:27:04;95407.13;;;18.25;50.81
32197;BME280;18697;42.770;23.400;2023-04-22T08:29:29;95418.72;;;18.05;50.33
32197;BME280;18697;42.770;23.400;2023-04-22T08:31:55;95400.38;;;17.93;50.72
32197;BME280;18697;42.770;23.400;2023-04-22T08:34:20;95395.03;;;18.71;51.96
32197;BME280;18697;42.770;23.400;2023-04-22T08:36:46;95404.19;;;19.08;48.75
32197;BME280;18697;42.770;23.400;2023-04-22T08:39:11;95402.88;;;19.63;48.81
32197;BME280;18697;42.770;23.400;2023-04-22T08:41:37;95396.50;;;19.81;46.99
32197;BME280;18697;42.770;23.400;2023-04-22T08:44:03;95389.81;;;19.35;47.47
32197;BME280;18697;42.770;23.400;2023-04-22T08:46:29;95383.34;;;19.22;47.58
32197;BME280;18697;42.770;23.400;2023-04-22T08:48:55;95378.75;;;19.19;46.20
32197;BME280;18697;42.770;23.400;2023-04-22T08:51:27;95387.38;;;19.26;46.72
32197;BME280;18697;42.770;23.400;2023-04-22T08:53:52;95396.47;;;18.84;47.34
32197;BME280;18697;42.770;23.400;2023-04-22T08:56:18;95392.91;;;18.83;47.44
32197;BME280;18697;42.770;23.400;2023-04-22T08:58:44;95389.94;;;19.00;47.65
32197;BME280;18697;42.770;23.400;2023-04-22T09:01:10;95385.94;;;18.90;47.07
32197;BME280;18697;42.770;23.400;2023-04-22T09:03:40;95379.41;;;19.30;48.11
32197;BME280;18697;42.770;23.400;2023-04-22T09:06:06;95386.19;;;19.41;47.82
32197;BME280;18697;42.770;23.400;2023-04-22T09:08:34;95374.81;;;19.52;46.20
32197;BME280;18697;42.770;23.400;2023-04-22T09:11:00;95371.94;;;19.57;46.64
32197;BME280;18697;42.770;23.400;2023-04-22T09:13:25;95373.00;;;19.97;44.40
32197;BME280;18697;42.770;23.400;2023-04-22T09:15:51;95375.41;;;20.44;45.75
32197;BME280;18697;42.770;23.400;2023-04-22T09:18:17;95381.56;;;20.61;46.34
32197;BME280;18697;42.770;23.400;2023-04-22T09:20:45;95372.84;;;20.91;44.64
32197;BME280;18697;42.770;23.400;2023-04-22T09:23:11;95371.25;;;21.09;43.82
32197;BME280;18697;42.770;23.400;2023-04-22T09:25:37;95371.91;;;20.19;40.51
32197;BME280;18697;42.770;23.400;2023-04-22T09:28:03;95376.47;;;20.22;41.45
32197;BME280;18697;42.770;23.400;2023-04-22T09:30:34;95372.19;;;20.34;44.08
32197;BME280;18697;42.770;23.400;2023-04-22T09:33:02;95381.72;;;20.13;42.93
32197;BME280;18697;42.770;23.400;2023-04-22T09:35:38;95387.06;;;19.79;43.61
32197;BME280;18697;42.770;23.400;2023-04-22T09:38:05;95396.84;;;19.29;40.46
32197;BME280;18697;42.770;23.400;2023-04-22T09:40:32;95393.84;;;18.91;42.23
32197;BME280;18697;42.770;23.400;2023-04-22T09:43:01;95410.88;;;18.39;43.87
32197;BME280;18697;42.770;23.400;2023-04-22T09:45:32;95410.50;;;17.66;45.73
32197;BME280;18697;42.770;23.400;2023-04-22T09:48:09;95413.88;;;17.31;47.85
32197;BME280;18697;42.770;23.400;2023-04-22T09:50:38;95420.06;;;17.01;48.16
32197;BME280;18697;42.770;23.400;2023-04-22T09:53:08;95412.31;;;16.07;51.68
32197;BME280;18697;42.770;23.400;2023-04-22T09:55:38;95410.59;;;15.50;53.21
32197;BME280;18697;42.770;23.400;2023-04-22T09:58:07;95409.16;;;15.23;54.30
32197;BME280;18697;42.770;23.400;2023-04-22T10:00:34;95411.44;;;14.76;53.69
32197;BME280;18697;42.770;23.400;2023-04-22T10:03:00;95412.44;;;14.48;53.69
32197;BME280;18697;42.770;23.400;2023-04-22T10:05:25;95398.53;;;14.53;54.42
32197;BME280;18697;42.770;23.400;2023-04-22T10:07:53;95400.47;;;14.73;54.17
32197;BME280;18697;42.770;23.400;2023-04-22T10:10:19;95404.94;;;14.59;53.20
32197;BME280;18697;42.770;23.400;2023-04-22T10:12:46;95386.31;;;14.51;56.18
32197;BME280;18697;42.770;23.400;2023-04-22T10:15:11;95373.88;;;14.26;58.35
32197;BME280;18697;42.770;23.400;2023-04-22T10:17:37;95368.03;;;14.24;56.11
32197;BME280;18697;42.770;23.400;2023-04-22T10:20:06;95373.06;;;14.45;59.97
32197;BME280;18697;42.770;23.400;2023-04-22T10:22:38;95368.75;;;14.82;55.71
32197;BME280;18697;42.770;23.400;2023-04-22T10:25:04;95367.44;;;15.20;48.01
32197;BME280;18697;42.770;23.400;2023-04-22T10:27:30;95371.91;;;15.49;45.62
32197;BME280;18697;42.770;23.400;2023-04-22T10:29:56;95368.63;;;15.56;43.58
32197;BME280;18697;42.770;23.400;2023-04-22T10:34:47;95358.09;;;16.04;46.97
32197;BME280;18697;42.770;23.400;2023-04-22T10:37:16;95351.97;;;16.45;47.15
32197;BME280;18697;42.770;23.400;2023-04-22T10:42:30;95350.22;;;16.81;49.82
32197;BME280;18697;42.770;23.400;2023-04-22T10:45:01;95347.94;;;16.68;51.25
32197;BME280;18697;42.770;23.400;2023-04-22T10:50:29;95348.69;;;16.30;51.76
32197;BME280;18697;42.770;23.400;2023-04-22T10:53:00;95350.72;;;16.18;52.43
32197;BME280;18697;42.770;23.400;2023-04-22T10:55:50;95353.03;;;16.25;53.53
32197;BME280;18697;42.770;23.400;2023-04-22T10:58:20;95355.28;;;16.10;52.32
32197;BME280;18697;42.770;23.400;2023-04-22T11:00:46;95347.34;;;15.86;53.30
32197;BME280;18697;42.770;23.400;2023-04-22T11:03:16;95347.56;;;15.71;55.25
32197;BME280;18697;42.770;23.400;2023-04-22T11:05:42;95354.22;;;15.80;57.45
32197;BME280;18697;42.770;23.400;2023-04-22T11:08:14;95356.56;;;16.15;57.38
32197;BME280;18697;42.770;23.400;2023-04-22T11:10:43;95352.00;;;16.56;56.75
32197;BME280;18697;42.770;23.400;2023-04-22T11:13:11;95351.25;;;16.78;54.65
32197;BME280;18697;42.770;23.400;2023-04-22T11:15:39;95353.78;;;16.59;54.54
32197;BME280;18697;42.770;23.400;2023-04-22T11:18:15;95364.50;;;16.78;55.58
32197;BME280;18697;42.770;23.400;2023-04-22T11:20:41;95350.19;;;16.59;52.94
32197;BME280;18697;42.770;23.400;2023-04-22T11:23:07;95359.13;;;16.52;52.65
32197;BME280;18697;42.770;23.400;2023-04-22T11:25:32;95361.16;;;16.57;53.83
32197;BME280;18697;42.770;23.400;2023-04-22T11:27:58;95357.59;;;16.45;53.72
32197;BME280;18697;42.770;23.400;2023-04-22T11:30:25;95375.44;;;16.20;52.35
32197;BME280;18697;42.770;23.400;2023-04-22T11:32:53;95378.75;;;16.24;53.04
32197;BME280;18697;42.770;23.400;2023-04-22T11:35:21;95375.94;;;16.13;52.33
32197;BME280;18697;42.770;23.400;2023-04-22T11:37:49;95376.69;;;16.19;52.31
32197;BME280;18697;42.770;23.400;2023-04-22T11:40:29;95393.78;;;16.21;51.65
32197;BME280;18697;42.770;23.400;2023-04-22T11:42:57;95382.56;;;16.54;52.87
32197;BME280;18697;42.770;23.400;2023-04-22T11:45:23;95387.69;;;16.95;50.89
32197;BME280;18697;42.770;23.400;2023-04-22T11:47:50;95387.16;;;17.02;50.52
32197;BME280;18697;42.770;23.400;2023-04-22T11:50:17;95383.09;;;16.69;50.77
32197;BME280;18697;42.770;23.400;2023-04-22T11:52:51;95387.44;;;16.98;52.96
32197;BME280;18697;42.770;23.400;2023-04-22T11:55:21;95389.84;;;17.41;49.75
32197;BME280;18697;42.770;23.400;2023-04-22T12:00:27;95389.44;;;17.84;48.23
32197;BME280;18697;42.770;23.400;2023-04-22T12:02:55;95384.16;;;17.63;47.73
32197;BME280;18697;42.770;23.400;2023-04-22T12:05:40;95390.69;;;17.94;48.27
32197;BME280;18697;42.770;23.400;2023-04-22T12:08:15;95392.44;;;18.44;51.29
32197;BME280;18697;42.770;23.400;2023-04-22T12:10:50;95386.94;;;18.62;49.73
32197;BME280;18697;42.770;23.400;2023-04-22T12:13:18;95378.94;;;18.72;50.09
32197;BME280;18697;42.770;23.400;2023-04-22T12:15:44;95377.69;;;18.97;50.67
32197;BME280;18697;42.770;23.400;2023-04-22T12:18:10;95381.25;;;18.98;48.94
32197;BME280;18697;42.770;23.400;2023-04-22T12:20:38;95366.22;;;18.60;48.06
32197;BME280;18697;42.770;23.400;2023-04-22T12:23:04;95374.63;;;18.30;49.17
32197;BME280;18697;42.770;23.400;2023-04-22T12:25:30;95367.00;;;18.25;49.57
32197;BME280;18697;42.770;23.400;2023-04-22T12:27:58;95375.88;;;18.34;50.63
32197;BME280;18697;42.770;23.400;2023-04-22T12:30:24;95366.22;;;18.24;47.63
32197;BME280;18697;42.770;23.400;2023-04-22T12:32:50;95377.06;;;18.50;49.73
32197;BME280;18697;42.770;23.400;2023-04-22T12:35:16;95378.72;;;18.64;48.33
32197;BME280;18697;42.770;23.400;2023-04-22T12:37:42;95372.53;;;18.71;47.58
32197;BME280;18697;42.770;23.400;2023-04-22T12:40:07;95383.41;;;18.86;47.20
32197;BME280;18697;42.770;23.400;2023-04-22T12:42:34;95378.84;;;18.83;47.72
32197;BME280;18697;42.770;23.400;2023-04-22T12:44:59;95361.56;;;18.98;48.12
32197;BME280;18697;42.770;23.400;2023-04-22T12:47:25;95368.13;;;19.06;46.96
32197;BME280;18697;42.770;23.400;2023-04-22T12:49:50;95356.00;;;18.62;46.08
32197;BME280;18697;42.770;23.400;2023-04-22T12:52:16;95345.66;;;18.76;47.08
32197;BME280;18697;42.770;23.400;2023-04-22T12:54:42;95342.09;;;19.00;47.31
32197;BME280;18697;42.770;23.400;2023-04-22T12:57:07;95348.56;;;19.19;44.70
32197;BME280;18697;42.770;23.400;2023-04-22T12:59:32;95338.34;;;19.16;46.79